sensor_id;sensor_type;location;lat;lon;timestamp;P1;durP1;ratioP1;P2;durP2;ratioP2
72584;SDS011;60618;40.084;32.908;2023-06-04T00:01:36;7.45;;;2.38;;
72584;SDS011;60618;40.084;32.908;2023-06-04T00:04:03;7.67;;;2.50;;
72584;SDS011;60618;40.084;32.908;2023-06-04T00:06:30;7.72;;;2.70;;
72584;SDS011;60618;40.084;32.908;2023-06-04T00:08:57;8.27;;;2.75;;
72584;SDS011;60618;40.084;32.908;2023-06-04T00:11:25;9.75;;;2.70;;
72584;SDS011;60618;40.084;32.908;2023-06-04T00:14:00;9.23;;;2.42;;
72584;SDS011;60618;40.084;32.908;2023-06-04T00:16:27;8.73;;;2.40;;
72584;SDS011;60618;40.084;32.908;2023-06-04T00:18:54;10.25;;;3.22;;
72584;SDS011;60618;40.084;32.908;2023-06-04T00:21:21;11.48;;;3.25;;
72584;SDS011;60618;40.084;32.908;2023-06-04T00:23:48;7.13;;;2.33;;
72584;SDS011;60618;40.084;32.908;2023-06-04T00:26:15;8.25;;;2.80;;
72584;SDS011;60618;40.084;32.908;2023-06-04T00:28:42;8.60;;;2.80;;
72584;SDS011;60618;40.084;32.908;2023-06-04T00:31:09;10.07;;;3.78;;
72584;SDS011;60618;40.084;32.908;2023-06-04T00:33:36;7.30;;;2.42;;
72584;SDS011;60618;40.084;32.908;2023-06-04T00:36:03;7.40;;;2.40;;
72584;SDS011;60618;40.084;32.908;2023-06-04T00:38:30;6.65;;;2.50;;
72584;SDS011;60618;40.084;32.908;2023-06-04T00:40:57;7.33;;;2.40;;
72584;SDS011;60618;40.084;32.908;2023-06-04T00:43:24;6.68;;;2.47;;
72584;SDS011;60618;40.084;32.908;2023-06-04T00:45:52;7.57;;;2.05;;
72584;SDS011;60618;40.084;32.908;2023-06-04T00:48:20;6.85;;;2.15;;
72584;SDS011;60618;40.084;32.908;2023-06-04T00:50:48;9.02;;;2.35;;
72584;SDS011;60618;40.084;32.908;2023-06-04T00:53:15;9.10;;;2.20;;
72584;SDS011;60618;40.084;32.908;2023-06-04T00:55:41;7.80;;;2.45;;
72584;SDS011;60618;40.084;32.908;2023-06-04T00:58:08;6.72;;;2.20;;
72584;SDS011;60618;40.084;32.908;2023-06-04T01:00:36;9.32;;;2.67;;
72584;SDS011;60618;40.084;32.908;2023-06-04T01:03:03;9.65;;;3.30;;
72584;SDS011;60618;40.084;32.908;2023-06-04T01:05:41;9.87;;;3.47;;
72584;SDS011;60618;40.084;32.908;2023-06-04T01:08:29;8.32;;;2.97;;
72584;SDS011;60618;40.084;32.908;2023-06-04T01:10:57;6.70;;;2.95;;
72584;SDS011;60618;40.084;32.908;2023-06-04T01:13:24;9.45;;;2.90;;
72584;SDS011;60618;40.084;32.908;2023-06-04T01:15:51;8.00;;;2.97;;
72584;SDS011;60618;40.084;32.908;2023-06-04T01:18:19;7.27;;;3.40;;
72584;SDS011;60618;40.084;32.908;2023-06-04T01:20:49;7.85;;;3.22;;
72584;SDS011;60618;40.084;32.908;2023-06-04T01:23:26;9.02;;;3.20;;
72584;SDS011;60618;40.084;32.908;2023-06-04T01:26:01;9.70;;;3.40;;
72584;SDS011;60618;40.084;32.908;2023-06-04T01:28:30;8.75;;;3.53;;
72584;SDS011;60618;40.084;32.908;2023-06-04T01:31:00;8.23;;;3.50;;
72584;SDS011;60618;40.084;32.908;2023-06-04T01:33:27;9.65;;;3.15;;
72584;SDS011;60618;40.084;32.908;2023-06-04T01:35:55;8.52;;;3.10;;
72584;SDS011;60618;40.084;32.908;2023-06-04T01:38:22;7.20;;;3.10;;
72584;SDS011;60618;40.084;32.908;2023-06-04T01:40:49;7.13;;;2.85;;
72584;SDS011;60618;40.084;32.908;2023-06-04T01:43:16;8.47;;;3.60;;
72584;SDS011;60618;40.084;32.908;2023-06-04T01:45:43;10.48;;;4.03;;
72584;SDS011;60618;40.084;32.908;2023-06-04T01:48:10;14.68;;;4.85;;
72584;SDS011;60618;40.084;32.908;2023-06-04T01:50:37;12.80;;;5.55;;
72584;SDS011;60618;40.084;32.908;2023-06-04T01:53:04;14.05;;;6.80;;
72584;SDS011;60618;40.084;32.908;2023-06-04T01:55:32;16.43;;;6.87;;
72584;SDS011;60618;40.084;32.908;2023-06-04T01:58:09;15.77;;;7.63;;
72584;SDS011;60618;40.084;32.908;2023-06-04T02:00:36;17.35;;;9.00;;
72584;SDS011;60618;40.084;32.908;2023-06-04T02:03:03;18.98;;;7.90;;
72584;SDS011;60618;40.084;32.908;2023-06-04T02:05:30;13.68;;;6.22;;
72584;SDS011;60618;40.084;32.908;2023-06-04T02:07:58;13.03;;;5.30;;
72584;SDS011;60618;40.084;32.908;2023-06-04T02:10:26;11.00;;;4.70;;
72584;SDS011;60618;40.084;32.908;2023-06-04T02:12:57;14.02;;;5.50;;
72584;SDS011;60618;40.084;32.908;2023-06-04T02:15:24;12.73;;;4.82;;
72584;SDS011;60618;40.084;32.908;2023-06-04T02:18:00;10.85;;;4.43;;
72584;SDS011;60618;40.084;32.908;2023-06-04T02:20:42;10.90;;;3.53;;
72584;SDS011;60618;40.084;32.908;2023-06-04T02:23:13;11.48;;;3.65;;
72584;SDS011;60618;40.084;32.908;2023-06-04T02:25:41;15.98;;;7.10;;
72584;SDS011;60618;40.084;32.908;2023-06-04T02:28:08;17.10;;;7.43;;
72584;SDS011;60618;40.084;32.908;2023-06-04T02:30:35;15.30;;;6.57;;
72584;SDS011;60618;40.084;32.908;2023-06-04T02:33:02;16.97;;;7.30;;
72584;SDS011;60618;40.084;32.908;2023-06-04T02:35:30;15.93;;;6.30;;
72584;SDS011;60618;40.084;32.908;2023-06-04T02:37:57;13.65;;;6.40;;
72584;SDS011;60618;40.084;32.908;2023-06-04T02:40:25;15.32;;;7.05;;
72584;SDS011;60618;40.084;32.908;2023-06-04T02:42:52;13.70;;;6.35;;
72584;SDS011;60618;40.084;32.908;2023-06-04T02:45:19;14.77;;;6.43;;
72584;SDS011;60618;40.084;32.908;2023-06-04T02:47:47;14.50;;;6.60;;
72584;SDS011;60618;40.084;32.908;2023-06-04T02:50:14;19.02;;;7.80;;
72584;SDS011;60618;40.084;32.908;2023-06-04T02:52:42;15.90;;;7.50;;
72584;SDS011;60618;40.084;32.908;2023-06-04T02:55:10;15.40;;;6.80;;
72584;SDS011;60618;40.084;32.908;2023-06-04T02:57:38;18.30;;;8.50;;
72584;SDS011;60618;40.084;32.908;2023-06-04T03:00:06;16.63;;;8.60;;
72584;SDS011;60618;40.084;32.908;2023-06-04T03:02:34;20.92;;;8.95;;
72584;SDS011;60618;40.084;32.908;2023-06-04T03:05:01;20.55;;;10.32;;
72584;SDS011;60618;40.084;32.908;2023-06-04T03:07:28;19.88;;;10.18;;
72584;SDS011;60618;40.084;32.908;2023-06-04T03:09:55;16.63;;;8.20;;
72584;SDS011;60618;40.084;32.908;2023-06-04T03:12:22;19.13;;;9.07;;
72584;SDS011;60618;40.084;32.908;2023-06-04T03:14:49;16.45;;;7.43;;
72584;SDS011;60618;40.084;32.908;2023-06-04T03:17:16;13.02;;;6.72;;
72584;SDS011;60618;40.084;32.908;2023-06-04T03:19:43;15.40;;;7.95;;
72584;SDS011;60618;40.084;32.908;2023-06-04T03:22:10;18.03;;;8.73;;
72584;SDS011;60618;40.084;32.908;2023-06-04T03:24:38;19.58;;;9.80;;
72584;SDS011;60618;40.084;32.908;2023-06-04T03:27:07;21.08;;;9.63;;
72584;SDS011;60618;40.084;32.908;2023-06-04T03:29:35;20.45;;;10.77;;
72584;SDS011;60618;40.084;32.908;2023-06-04T03:32:02;19.30;;;9.18;;
72584;SDS011;60618;40.084;32.908;2023-06-04T03:34:30;21.63;;;10.40;;
72584;SDS011;60618;40.084;32.908;2023-06-04T03:37:01;17.27;;;9.40;;
72584;SDS011;60618;40.084;32.908;2023-06-04T03:39:28;17.90;;;8.35;;
72584;SDS011;60618;40.084;32.908;2023-06-04T03:41:55;16.40;;;8.65;;
72584;SDS011;60618;40.084;32.908;2023-06-04T03:44:22;22.65;;;10.98;;
72584;SDS011;60618;40.084;32.908;2023-06-04T03:46:49;26.07;;;12.10;;
72584;SDS011;60618;40.084;32.908;2023-06-04T03:49:16;24.63;;;12.02;;
72584;SDS011;60618;40.084;32.908;2023-06-04T03:51:43;23.17;;;11.88;;
72584;SDS011;60618;40.084;32.908;2023-06-04T03:54:10;25.50;;;11.60;;
72584;SDS011;60618;40.084;32.908;2023-06-04T03:56:37;23.63;;;12.10;;
72584;SDS011;60618;40.084;32.908;2023-06-04T03:59:05;22.50;;;12.33;;
72584;SDS011;60618;40.084;32.908;2023-06-04T04:01:34;28.33;;;12.75;;
72584;SDS011;60618;40.084;32.908;2023-06-04T04:04:05;24.08;;;12.75;;
72584;SDS011;60618;40.084;32.908;2023-06-04T04:06:32;25.27;;;13.52;;
72584;SDS011;60618;40.084;32.908;2023-06-04T04:08:59;23.88;;;12.55;;
72584;SDS011;60618;40.084;32.908;2023-06-04T04:11:26;26.63;;;13.00;;
72584;SDS011;60618;40.084;32.908;2023-06-04T04:13:55;24.88;;;12.32;;
72584;SDS011;60618;40.084;32.908;2023-06-04T04:16:22;26.50;;;12.60;;
72584;SDS011;60618;40.084;32.908;2023-06-04T04:18:50;25.17;;;12.20;;
72584;SDS011;60618;40.084;32.908;2023-06-04T04:21:18;21.92;;;10.98;;
72584;SDS011;60618;40.084;32.908;2023-06-04T04:23:45;23.47;;;11.03;;
72584;SDS011;60618;40.084;32.908;2023-06-04T04:26:12;21.50;;;12.00;;
72584;SDS011;60618;40.084;32.908;2023-06-04T04:28:39;28.35;;;12.95;;
72584;SDS011;60618;40.084;32.908;2023-06-04T04:31:06;27.08;;;13.57;;
72584;SDS011;60618;40.084;32.908;2023-06-04T04:33:35;28.08;;;12.95;;
72584;SDS011;60618;40.084;32.908;2023-06-04T04:36:03;25.97;;;13.03;;
72584;SDS011;60618;40.084;32.908;2023-06-04T04:38:30;29.20;;;13.00;;
72584;SDS011;60618;40.084;32.908;2023-06-04T04:40:57;23.95;;;10.95;;
72584;SDS011;60618;40.084;32.908;2023-06-04T04:43:31;21.95;;;10.18;;
72584;SDS011;60618;40.084;32.908;2023-06-04T04:45:59;20.08;;;10.35;;
72584;SDS011;60618;40.084;32.908;2023-06-04T04:48:26;21.07;;;10.63;;
72584;SDS011;60618;40.084;32.908;2023-06-04T04:50:53;20.30;;;10.38;;
72584;SDS011;60618;40.084;32.908;2023-06-04T04:53:20;19.98;;;9.77;;
72584;SDS011;60618;40.084;32.908;2023-06-04T04:55:47;19.73;;;9.38;;
72584;SDS011;60618;40.084;32.908;2023-06-04T04:58:15;18.05;;;9.38;;
72584;SDS011;60618;40.084;32.908;2023-06-04T05:00:42;19.30;;;9.10;;
72584;SDS011;60618;40.084;32.908;2023-06-04T05:03:09;20.45;;;10.30;;
72584;SDS011;60618;40.084;32.908;2023-06-04T05:05:36;20.33;;;9.40;;
72584;SDS011;60618;40.084;32.908;2023-06-04T05:08:03;20.75;;;9.93;;
72584;SDS011;60618;40.084;32.908;2023-06-04T05:10:30;19.77;;;10.18;;
72584;SDS011;60618;40.084;32.908;2023-06-04T05:12:58;20.83;;;10.57;;
72584;SDS011;60618;40.084;32.908;2023-06-04T05:15:25;21.65;;;10.60;;
72584;SDS011;60618;40.084;32.908;2023-06-04T05:17:53;21.95;;;10.90;;
72584;SDS011;60618;40.084;32.908;2023-06-04T05:20:20;21.13;;;11.45;;
72584;SDS011;60618;40.084;32.908;2023-06-04T05:22:47;28.33;;;12.13;;
72584;SDS011;60618;40.084;32.908;2023-06-04T05:25:14;22.60;;;11.47;;
72584;SDS011;60618;40.084;32.908;2023-06-04T05:27:43;26.77;;;12.55;;
72584;SDS011;60618;40.084;32.908;2023-06-04T05:30:10;24.27;;;13.38;;
72584;SDS011;60618;40.084;32.908;2023-06-04T05:32:37;27.08;;;14.05;;
72584;SDS011;60618;40.084;32.908;2023-06-04T05:35:04;29.13;;;13.48;;
72584;SDS011;60618;40.084;32.908;2023-06-04T05:37:31;25.07;;;13.03;;
72584;SDS011;60618;40.084;32.908;2023-06-04T05:39:58;24.05;;;12.75;;
72584;SDS011;60618;40.084;32.908;2023-06-04T05:42:25;24.25;;;13.20;;
72584;SDS011;60618;40.084;32.908;2023-06-04T05:44:52;25.80;;;13.65;;
72584;SDS011;60618;40.084;32.908;2023-06-04T05:47:19;26.83;;;13.55;;
72584;SDS011;60618;40.084;32.908;2023-06-04T05:49:46;25.53;;;13.73;;
72584;SDS011;60618;40.084;32.908;2023-06-04T05:52:13;31.58;;;15.07;;
72584;SDS011;60618;40.084;32.908;2023-06-04T05:54:55;28.45;;;15.43;;
72584;SDS011;60618;40.084;32.908;2023-06-04T05:57:26;28.13;;;14.45;;
72584;SDS011;60618;40.084;32.908;2023-06-04T06:00:00;28.33;;;15.55;;
72584;SDS011;60618;40.084;32.908;2023-06-04T06:02:26;30.33;;;15.27;;
72584;SDS011;60618;40.084;32.908;2023-06-04T06:04:53;24.90;;;12.30;;
72584;SDS011;60618;40.084;32.908;2023-06-04T06:10:18;23.63;;;11.73;;
72584;SDS011;60618;40.084;32.908;2023-06-04T06:12:45;25.90;;;12.68;;
72584;SDS011;60618;40.084;32.908;2023-06-04T06:15:13;23.92;;;11.55;;
72584;SDS011;60618;40.084;32.908;2023-06-04T06:17:52;21.98;;;11.25;;
72584;SDS011;60618;40.084;32.908;2023-06-04T06:20:24;19.70;;;9.13;;
72584;SDS011;60618;40.084;32.908;2023-06-04T06:22:51;18.47;;;9.63;;
72584;SDS011;60618;40.084;32.908;2023-06-04T06:25:19;27.65;;;12.93;;
72584;SDS011;60618;40.084;32.908;2023-06-04T06:27:46;25.58;;;12.80;;
72584;SDS011;60618;40.084;32.908;2023-06-04T06:30:18;28.02;;;13.15;;
72584;SDS011;60618;40.084;32.908;2023-06-04T06:32:47;36.70;;;16.08;;
72584;SDS011;60618;40.084;32.908;2023-06-04T06:35:15;31.77;;;15.33;;
72584;SDS011;60618;40.084;32.908;2023-06-04T06:37:43;31.42;;;15.07;;
72584;SDS011;60618;40.084;32.908;2023-06-04T06:40:11;27.20;;;14.80;;
72584;SDS011;60618;40.084;32.908;2023-06-04T06:42:48;34.42;;;16.10;;
72584;SDS011;60618;40.084;32.908;2023-06-04T06:45:17;30.05;;;13.43;;
72584;SDS011;60618;40.084;32.908;2023-06-04T06:47:44;29.00;;;14.00;;
72584;SDS011;60618;40.084;32.908;2023-06-04T06:50:11;36.42;;;16.92;;
72584;SDS011;60618;40.084;32.908;2023-06-04T06:52:38;35.45;;;16.83;;
72584;SDS011;60618;40.084;32.908;2023-06-04T06:55:05;41.83;;;19.27;;
72584;SDS011;60618;40.084;32.908;2023-06-04T06:57:32;39.05;;;18.10;;
72584;SDS011;60618;40.084;32.908;2023-06-04T07:00:00;37.83;;;17.37;;
72584;SDS011;60618;40.084;32.908;2023-06-04T07:02:27;37.17;;;17.08;;
72584;SDS011;60618;40.084;32.908;2023-06-04T07:04:54;37.95;;;17.55;;
72584;SDS011;60618;40.084;32.908;2023-06-04T07:07:21;34.58;;;15.95;;
72584;SDS011;60618;40.084;32.908;2023-06-04T07:09:48;31.05;;;15.38;;
72584;SDS011;60618;40.084;32.908;2023-06-04T07:12:23;30.20;;;13.97;;
72584;SDS011;60618;40.084;32.908;2023-06-04T07:14:50;29.88;;;13.60;;
72584;SDS011;60618;40.084;32.908;2023-06-04T07:17:17;30.02;;;15.07;;
72584;SDS011;60618;40.084;32.908;2023-06-04T07:19:44;40.28;;;18.30;;
72584;SDS011;60618;40.084;32.908;2023-06-04T07:22:11;35.22;;;15.88;;
72584;SDS011;60618;40.084;32.908;2023-06-04T07:24:38;29.87;;;15.27;;
72584;SDS011;60618;40.084;32.908;2023-06-04T07:27:14;38.05;;;15.90;;
72584;SDS011;60618;40.084;32.908;2023-06-04T07:29:43;32.17;;;15.02;;
72584;SDS011;60618;40.084;32.908;2023-06-04T07:32:22;30.15;;;14.68;;
72584;SDS011;60618;40.084;32.908;2023-06-04T07:34:49;32.67;;;15.75;;
72584;SDS011;60618;40.084;32.908;2023-06-04T07:37:16;24.83;;;12.07;;
72584;SDS011;60618;40.084;32.908;2023-06-04T07:39:43;32.92;;;14.73;;
72584;SDS011;60618;40.084;32.908;2023-06-04T07:42:14;28.55;;;15.63;;
72584;SDS011;60618;40.084;32.908;2023-06-04T07:44:43;27.67;;;13.73;;
72584;SDS011;60618;40.084;32.908;2023-06-04T07:47:10;30.15;;;14.55;;
72584;SDS011;60618;40.084;32.908;2023-06-04T07:49:42;30.43;;;14.60;;
72584;SDS011;60618;40.084;32.908;2023-06-04T07:52:27;34.30;;;15.32;;
72584;SDS011;60618;40.084;32.908;2023-06-04T07:57:46;30.65;;;13.70;;
72584;SDS011;60618;40.084;32.908;2023-06-04T08:00:27;27.92;;;14.13;;
72584;SDS011;60618;40.084;32.908;2023-06-04T08:02:56;18.57;;;9.83;;
72584;SDS011;60618;40.084;32.908;2023-06-04T08:05:25;23.98;;;12.25;;
72584;SDS011;60618;40.084;32.908;2023-06-04T08:07:53;28.42;;;13.98;;
72584;SDS011;60618;40.084;32.908;2023-06-04T08:10:20;28.95;;;14.52;;
72584;SDS011;60618;40.084;32.908;2023-06-04T08:12:51;27.42;;;12.50;;
72584;SDS011;60618;40.084;32.908;2023-06-04T08:15:25;25.50;;;12.67;;
72584;SDS011;60618;40.084;32.908;2023-06-04T08:17:55;28.35;;;13.05;;
72584;SDS011;60618;40.084;32.908;2023-06-04T08:20:30;26.45;;;13.15;;
72584;SDS011;60618;40.084;32.908;2023-06-04T08:22:58;27.75;;;13.00;;
72584;SDS011;60618;40.084;32.908;2023-06-04T08:25:24;20.15;;;10.68;;
72584;SDS011;60618;40.084;32.908;2023-06-04T08:28:07;25.47;;;12.43;;
72584;SDS011;60618;40.084;32.908;2023-06-04T08:30:35;26.73;;;13.00;;
72584;SDS011;60618;40.084;32.908;2023-06-04T08:33:02;25.30;;;13.00;;
72584;SDS011;60618;40.084;32.908;2023-06-04T08:35:29;23.77;;;11.70;;
72584;SDS011;60618;40.084;32.908;2023-06-04T08:37:56;22.05;;;10.80;;
72584;SDS011;60618;40.084;32.908;2023-06-04T08:40:23;22.33;;;11.37;;
72584;SDS011;60618;40.084;32.908;2023-06-04T08:42:55;20.27;;;10.73;;
72584;SDS011;60618;40.084;32.908;2023-06-04T08:45:28;19.98;;;10.43;;
72584;SDS011;60618;40.084;32.908;2023-06-04T08:47:59;21.08;;;10.43;;
72584;SDS011;60618;40.084;32.908;2023-06-04T08:50:27;18.40;;;9.35;;
72584;SDS011;60618;40.084;32.908;2023-06-04T08:52:54;15.67;;;7.60;;
72584;SDS011;60618;40.084;32.908;2023-06-04T08:55:28;15.25;;;7.93;;
72584;SDS011;60618;40.084;32.908;2023-06-04T08:57:55;13.68;;;6.25;;
72584;SDS011;60618;40.084;32.908;2023-06-04T09:00:23;13.27;;;6.22;;
72584;SDS011;60618;40.084;32.908;2023-06-04T09:02:50;15.13;;;6.82;;
72584;SDS011;60618;40.084;32.908;2023-06-04T09:05:20;18.80;;;7.43;;
72584;SDS011;60618;40.084;32.908;2023-06-04T09:07:49;20.30;;;7.88;;
72584;SDS011;60618;40.084;32.908;2023-06-04T09:10:20;17.85;;;7.82;;
72584;SDS011;60618;40.084;32.908;2023-06-04T09:12:50;16.98;;;8.35;;
72584;SDS011;60618;40.084;32.908;2023-06-04T09:15:18;17.77;;;9.02;;
72584;SDS011;60618;40.084;32.908;2023-06-04T09:17:45;17.10;;;8.13;;
72584;SDS011;60618;40.084;32.908;2023-06-04T09:20:21;16.38;;;7.47;;
72584;SDS011;60618;40.084;32.908;2023-06-04T09:22:49;15.50;;;8.98;;
72584;SDS011;60618;40.084;32.908;2023-06-04T09:25:22;16.08;;;8.98;;
72584;SDS011;60618;40.084;32.908;2023-06-04T09:27:50;18.15;;;8.85;;
72584;SDS011;60618;40.084;32.908;2023-06-04T09:30:18;18.53;;;9.00;;
72584;SDS011;60618;40.084;32.908;2023-06-04T09:32:46;20.70;;;9.77;;
72584;SDS011;60618;40.084;32.908;2023-06-04T09:35:15;24.00;;;10.60;;
72584;SDS011;60618;40.084;32.908;2023-06-04T09:37:51;27.40;;;11.98;;
72584;SDS011;60618;40.084;32.908;2023-06-04T09:40:20;24.23;;;12.10;;
72584;SDS011;60618;40.084;32.908;2023-06-04T09:42:58;23.07;;;10.93;;
72584;SDS011;60618;40.084;32.908;2023-06-04T09:45:26;21.38;;;9.68;;
72584;SDS011;60618;40.084;32.908;2023-06-04T09:47:54;18.42;;;9.45;;
72584;SDS011;60618;40.084;32.908;2023-06-04T09:50:40;18.45;;;9.40;;
72584;SDS011;60618;40.084;32.908;2023-06-04T09:53:15;19.30;;;10.10;;
72584;SDS011;60618;40.084;32.908;2023-06-04T09:55:44;20.60;;;9.33;;
72584;SDS011;60618;40.084;32.908;2023-06-04T09:58:11;19.23;;;9.50;;
72584;SDS011;60618;40.084;32.908;2023-06-04T10:00:37;22.65;;;9.27;;
72584;SDS011;60618;40.084;32.908;2023-06-04T10:03:05;18.42;;;8.82;;
72584;SDS011;60618;40.084;32.908;2023-06-04T10:05:33;18.92;;;9.95;;
72584;SDS011;60618;40.084;32.908;2023-06-04T10:08:03;19.33;;;9.40;;
72584;SDS011;60618;40.084;32.908;2023-06-04T10:10:34;20.35;;;10.10;;
72584;SDS011;60618;40.084;32.908;2023-06-04T10:13:05;19.75;;;9.27;;
72584;SDS011;60618;40.084;32.908;2023-06-04T10:15:50;18.95;;;8.85;;
72584;SDS011;60618;40.084;32.908;2023-06-04T10:19:01;16.95;;;7.72;;
72584;SDS011;60618;40.084;32.908;2023-06-04T10:21:28;15.07;;;7.60;;
72584;SDS011;60618;40.084;32.908;2023-06-04T10:24:10;17.15;;;7.68;;
72584;SDS011;60618;40.084;32.908;2023-06-04T10:26:41;12.80;;;4.00;;
72584;SDS011;60618;40.084;32.908;2023-06-04T10:29:09;12.57;;;4.20;;
72584;SDS011;60618;40.084;32.908;2023-06-04T10:31:36;11.18;;;4.20;;
72584;SDS011;60618;40.084;32.908;2023-06-04T10:34:06;11.17;;;4.20;;
72584;SDS011;60618;40.084;32.908;2023-06-04T10:36:41;8.68;;;3.78;;
72584;SDS011;60618;40.084;32.908;2023-06-04T10:39:40;8.65;;;3.55;;
72584;SDS011;60618;40.084;32.908;2023-06-04T10:42:25;9.27;;;3.85;;
72584;SDS011;60618;40.084;32.908;2023-06-04T10:44:53;10.18;;;4.20;;
72584;SDS011;60618;40.084;32.908;2023-06-04T10:50:08;9.75;;;3.42;;
72584;SDS011;60618;40.084;32.908;2023-06-04T10:52:37;12.73;;;3.80;;
72584;SDS011;60618;40.084;32.908;2023-06-04T10:55:18;12.15;;;4.10;;
72584;SDS011;60618;40.084;32.908;2023-06-04T10:57:52;11.18;;;4.45;;
72584;SDS011;60618;40.084;32.908;2023-06-04T11:00:34;13.97;;;5.00;;
72584;SDS011;60618;40.084;32.908;2023-06-04T11:03:05;10.63;;;5.10;;
72584;SDS011;60618;40.084;32.908;2023-06-04T11:05:36;14.32;;;5.90;;
72584;SDS011;60618;40.084;32.908;2023-06-04T11:08:07;10.50;;;4.68;;
72584;SDS011;60618;40.084;32.908;2023-06-04T11:10:36;9.98;;;4.30;;
72584;SDS011;60618;40.084;32.908;2023-06-04T11:13:10;10.17;;;4.60;;
72584;SDS011;60618;40.084;32.908;2023-06-04T11:15:44;12.55;;;5.70;;
72584;SDS011;60618;40.084;32.908;2023-06-04T11:18:19;12.05;;;6.00;;
72584;SDS011;60618;40.084;32.908;2023-06-04T11:20:48;14.90;;;6.53;;
72584;SDS011;60618;40.084;32.908;2023-06-04T11:23:17;14.35;;;7.05;;
72584;SDS011;60618;40.084;32.908;2023-06-04T11:25:44;18.10;;;7.50;;
72584;SDS011;60618;40.084;32.908;2023-06-04T11:28:17;15.20;;;6.95;;
72584;SDS011;60618;40.084;32.908;2023-06-04T11:31:00;13.55;;;6.65;;
72584;SDS011;60618;40.084;32.908;2023-06-04T11:33:28;15.38;;;7.75;;
72584;SDS011;60618;40.084;32.908;2023-06-04T11:36:28;16.23;;;7.07;;
72584;SDS011;60618;40.084;32.908;2023-06-04T11:41:24;16.48;;;8.20;;
72584;SDS011;60618;40.084;32.908;2023-06-04T11:43:55;20.30;;;10.15;;
72584;SDS011;60618;40.084;32.908;2023-06-04T11:46:22;19.95;;;10.00;;
72584;SDS011;60618;40.084;32.908;2023-06-04T11:48:50;22.05;;;9.93;;
72584;SDS011;60618;40.084;32.908;2023-06-04T11:51:19;18.30;;;8.97;;
72584;SDS011;60618;40.084;32.908;2023-06-04T11:53:47;22.95;;;13.50;;
72584;SDS011;60618;40.084;32.908;2023-06-04T11:56:15;22.38;;;12.20;;
72584;SDS011;60618;40.084;32.908;2023-06-04T11:58:42;24.77;;;13.25;;
72584;SDS011;60618;40.084;32.908;2023-06-04T12:01:09;21.02;;;12.43;;
72584;SDS011;60618;40.084;32.908;2023-06-04T12:03:37;19.77;;;9.80;;
72584;SDS011;60618;40.084;32.908;2023-06-04T12:06:09;17.73;;;9.40;;
72584;SDS011;60618;40.084;32.908;2023-06-04T12:08:46;17.58;;;8.10;;
72584;SDS011;60618;40.084;32.908;2023-06-04T12:13:56;19.35;;;10.20;;
72584;SDS011;60618;40.084;32.908;2023-06-04T12:16:23;19.83;;;10.73;;
72584;SDS011;60618;40.084;32.908;2023-06-04T12:18:51;22.90;;;11.32;;
72584;SDS011;60618;40.084;32.908;2023-06-04T12:23:48;20.70;;;10.55;;
72584;SDS011;60618;40.084;32.908;2023-06-04T12:26:22;22.23;;;10.27;;
72584;SDS011;60618;40.084;32.908;2023-06-04T12:28:59;16.43;;;8.97;;
72584;SDS011;60618;40.084;32.908;2023-06-04T12:31:36;18.23;;;9.50;;
72584;SDS011;60618;40.084;32.908;2023-06-04T12:34:04;19.30;;;10.52;;
72584;SDS011;60618;40.084;32.908;2023-06-04T12:36:31;20.08;;;9.48;;
72584;SDS011;60618;40.084;32.908;2023-06-04T12:38:58;18.30;;;10.00;;
72584;SDS011;60618;40.084;32.908;2023-06-04T12:41:26;22.27;;;11.43;;
72584;SDS011;60618;40.084;32.908;2023-06-04T12:43:54;19.92;;;9.73;;
72584;SDS011;60618;40.084;32.908;2023-06-04T12:46:21;19.38;;;9.93;;
72584;SDS011;60618;40.084;32.908;2023-06-04T12:48:50;21.33;;;10.50;;
72584;SDS011;60618;40.084;32.908;2023-06-04T12:51:18;23.13;;;10.82;;
72584;SDS011;60618;40.084;32.908;2023-06-04T12:53:46;18.57;;;10.73;;
72584;SDS011;60618;40.084;32.908;2023-06-04T12:56:13;18.98;;;11.20;;
72584;SDS011;60618;40.084;32.908;2023-06-04T12:58:40;21.50;;;10.75;;
72584;SDS011;60618;40.084;32.908;2023-06-04T13:01:07;22.48;;;11.25;;
72584;SDS011;60618;40.084;32.908;2023-06-04T13:03:36;25.23;;;12.10;;
72584;SDS011;60618;40.084;32.908;2023-06-04T13:06:04;19.80;;;10.57;;
72584;SDS011;60618;40.084;32.908;2023-06-04T13:08:31;24.20;;;11.43;;
72584;SDS011;60618;40.084;32.908;2023-06-04T13:10:59;21.48;;;11.10;;
72584;SDS011;60618;40.084;32.908;2023-06-04T13:13:26;20.20;;;11.02;;
72584;SDS011;60618;40.084;32.908;2023-06-04T13:15:54;21.80;;;11.02;;
72584;SDS011;60618;40.084;32.908;2023-06-04T13:18:21;20.83;;;10.80;;
72584;SDS011;60618;40.084;32.908;2023-06-04T13:20:48;19.60;;;11.05;;
72584;SDS011;60618;40.084;32.908;2023-06-04T13:23:15;20.88;;;10.60;;
72584;SDS011;60618;40.084;32.908;2023-06-04T13:25:42;20.15;;;11.30;;
72584;SDS011;60618;40.084;32.908;2023-06-04T13:28:09;21.10;;;10.57;;
72584;SDS011;60618;40.084;32.908;2023-06-04T13:30:36;20.30;;;10.70;;
72584;SDS011;60618;40.084;32.908;2023-06-04T13:33:04;19.58;;;9.80;;
72584;SDS011;60618;40.084;32.908;2023-06-04T13:35:31;17.58;;;8.52;;
72584;SDS011;60618;40.084;32.908;2023-06-04T13:37:58;19.60;;;9.18;;
72584;SDS011;60618;40.084;32.908;2023-06-04T13:40:25;19.90;;;9.40;;
72584;SDS011;60618;40.084;32.908;2023-06-04T13:42:52;16.93;;;9.17;;
72584;SDS011;60618;40.084;32.908;2023-06-04T13:45:19;22.55;;;11.82;;
72584;SDS011;60618;40.084;32.908;2023-06-04T13:47:49;19.58;;;10.20;;
72584;SDS011;60618;40.084;32.908;2023-06-04T13:50:19;18.60;;;10.77;;
72584;SDS011;60618;40.084;32.908;2023-06-04T13:52:46;19.27;;;10.57;;
72584;SDS011;60618;40.084;32.908;2023-06-04T13:55:13;22.60;;;10.73;;
72584;SDS011;60618;40.084;32.908;2023-06-04T13:57:40;17.65;;;10.32;;
72584;SDS011;60618;40.084;32.908;2023-06-04T14:00:07;22.85;;;10.90;;
72584;SDS011;60618;40.084;32.908;2023-06-04T14:02:35;18.42;;;9.68;;
72584;SDS011;60618;40.084;32.908;2023-06-04T14:05:02;17.45;;;10.02;;
72584;SDS011;60618;40.084;32.908;2023-06-04T14:07:29;18.63;;;9.37;;
72584;SDS011;60618;40.084;32.908;2023-06-04T14:09:56;18.23;;;10.50;;
72584;SDS011;60618;40.084;32.908;2023-06-04T14:12:23;18.55;;;10.45;;
72584;SDS011;60618;40.084;32.908;2023-06-04T14:14:50;22.27;;;10.93;;
72584;SDS011;60618;40.084;32.908;2023-06-04T14:17:17;16.08;;;9.85;;
72584;SDS011;60618;40.084;32.908;2023-06-04T14:19:44;19.83;;;10.43;;
72584;SDS011;60618;40.084;32.908;2023-06-04T14:22:11;10.50;;;5.03;;
72584;SDS011;60618;40.084;32.908;2023-06-04T14:24:40;5.93;;;2.47;;
72584;SDS011;60618;40.084;32.908;2023-06-04T14:27:10;4.97;;;2.25;;
72584;SDS011;60618;40.084;32.908;2023-06-04T14:29:37;5.45;;;2.28;;
72584;SDS011;60618;40.084;32.908;2023-06-04T14:32:06;5.97;;;2.70;;
72584;SDS011;60618;40.084;32.908;2023-06-04T14:34:33;5.07;;;2.10;;
72584;SDS011;60618;40.084;32.908;2023-06-04T14:37:00;6.95;;;2.15;;
72584;SDS011;60618;40.084;32.908;2023-06-04T14:39:27;4.50;;;1.88;;
72584;SDS011;60618;40.084;32.908;2023-06-04T14:41:54;4.90;;;1.55;;
72584;SDS011;60618;40.084;32.908;2023-06-04T14:44:21;4.83;;;1.70;;
72584;SDS011;60618;40.084;32.908;2023-06-04T14:46:50;5.05;;;1.63;;